Time;durP1;ratioP1;P1;durP2;ratioP2;P2;SDS_P1;SDS_P2;PMS_P1;PMS_P2;Temp;Humidity;BMP_temperature;BMP_pressure;BME280_temperature;BME280_humidity;BME280_pressure;Samples;Min_cycle;Max_cycle;Signal;HPM_P1;HPM_P2
2023/09/16 00:00:45;;;;;;;11.20;6.20;;;;;;;12.48;69.22;99198.30;434394;1257;99349;-42
2023/09/16 00:11:13;;;;;;;12.60;6.80;;;;;;;12.49;69.70;99198.43;434304;1257;114126;-41
2023/09/16 00:21:20;;;;;;;11.40;7.30;;;;;;;12.57;69.97;99197.15;434375;1259;109345;-42
2023/09/16 00:31:25;;;;;;;14.50;7.60;;;;;;;12.34;69.97;99189.16;434262;1253;436719;-43
2023/09/16 00:41:32;;;;;;;13.50;7.30;;;;;;;12.26;70.31;99187.94;434368;1258;107977;-42
2023/09/16 01:01:49;;;;;;;15.50;7.80;;;;;;;12.19;70.70;99185.21;434528;1259;112316;-42
2023/09/16 01:11:57;;;;;;;15.00;9.30;;;;;;;12.10;70.97;99180.86;434778;1259;107151;-40
2023/09/16 01:22:05;;;;;;;18.00;7.60;;;;;;;11.94;70.98;99180.48;434557;1257;99240;-42
2023/09/16 01:42:21;;;;;;;13.90;7.70;;;;;;;11.50;71.46;99175.61;435389;1248;97989;-40
2023/09/16 01:52:27;;;;;;;17.40;7.70;;;;;;;11.32;71.80;99168.98;435248;1256;110033;-42
2023/09/16 02:02:34;;;;;;;14.90;7.40;;;;;;;11.18;72.08;99166.25;435100;1253;110015;-42
2023/09/16 02:12:41;;;;;;;13.40;7.40;;;;;;;11.09;72.14;99170.73;435226;1255;99180;-42
2023/09/16 02:22:52;;;;;;;11.80;7.10;;;;;;;10.90;72.46;99180.04;435283;1256;108329;-43
2023/09/16 02:32:59;;;;;;;14.20;8.20;;;;;;;10.66;72.81;99172.29;435211;1254;99210;-41
2023/09/16 02:53:12;;;;;;;9.50;7.00;;;;;;;10.25;72.90;99173.94;435158;1253;108730;-42
2023/09/16 03:03:19;;;;;;;15.60;7.40;;;;;;;10.06;73.21;99169.36;435258;1256;99443;-45
2023/09/16 03:13:26;;;;;;;9.20;6.70;;;;;;;9.84;73.47;99164.09;435137;1256;108714;-42
2023/09/16 03:23:33;;;;;;;12.30;7.50;;;;;;;9.61;73.54;99170.70;435164;1265;99324;-42
2023/09/16 03:33:40;;;;;;;11.30;7.50;;;;;;;9.51;73.87;99166.30;435112;1256;110984;-42
2023/09/16 03:43:47;;;;;;;12.60;7.00;;;;;;;9.52;74.25;99170.45;435127;1256;109264;-43
2023/09/16 03:53:56;;;;;;;16.10;8.10;;;;;;;9.36;74.31;99165.52;435171;1254;98814;-41
2023/09/16 04:14:09;;;;;;;19.30;8.30;;;;;;;8.86;74.25;99167.99;435015;1256;99250;-42
2023/09/16 04:24:16;;;;;;;18.30;9.80;;;;;;;8.81;74.53;99156.85;435136;1256;112645;-41
2023/09/16 04:34:23;;;;;;;12.30;8.30;;;;;;;8.77;74.67;99159.25;435094;1254;108421;-42
2023/09/16 04:44:30;;;;;;;13.60;8.50;;;;;;;8.64;75.01;99160.80;435248;1254;99360;-43
2023/09/16 05:04:42;;;;;;;13.50;8.10;;;;;;;8.70;74.95;99168.37;435236;1254;99224;-41
2023/09/16 05:24:57;;;;;;;15.00;9.90;;;;;;;9.91;76.80;99166.80;435201;1255;108398;-42
2023/09/16 05:45:11;;;;;;;8.00;5.90;;;;;;;13.39;76.02;99157.04;435083;1256;108590;-41
2023/09/16 05:55:18;;;;;;;13.90;7.90;;;;;;;14.21;75.16;99149.97;435181;1256;97986;-42
2023/09/16 06:05:29;;;;;;;12.20;7.70;;;;;;;15.04;74.48;99150.89;435174;1256;113010;-42
2023/09/16 06:15:35;;;;;;;13.10;7.30;;;;;;;15.76;72.98;99146.36;435089;1257;107992;-43
2023/09/16 06:25:42;;;;;;;12.50;8.10;;;;;;;15.98;72.13;99153.16;435343;1255;99372;-42
2023/09/16 06:35:48;;;;;;;11.50;7.00;;;;;;;16.63;71.19;99142.77;435302;1256;107947;-42
2023/09/16 06:45:55;;;;;;;12.20;7.90;;;;;;;17.49;70.39;99137.02;435280;1255;99224;-43
2023/09/16 06:56:01;;;;;;;11.30;5.80;;;;;;;17.83;69.33;99131.52;435135;1256;112986;-43
2023/09/16 07:16:16;;;;;;;10.00;5.20;;;;;;;17.99;66.68;99152.21;435190;1254;99260;-42
2023/09/16 07:26:22;;;;;;;7.40;6.10;;;;;;;17.70;67.00;99151.17;435314;1256;108297;-42
2023/09/16 07:46:35;;;;;;;18.90;9.00;;;;;;;17.20;67.35;99154.16;435265;1256;112967;-41
2023/09/16 07:56:42;;;;;;;7.40;5.50;;;;;;;17.47;67.76;99155.40;435305;1256;108307;-41
2023/09/16 08:16:57;;;;;;;12.10;8.20;;;;;;;17.84;66.91;99147.63;435364;1256;109484;-41
2023/09/16 08:27:04;;;;;;;26.20;8.70;;;;;;;17.77;66.73;99152.42;435350;1254;99227;-44
2023/09/16 08:37:13;;;;;;;7.90;5.50;;;;;;;18.26;66.90;99147.90;435220;1255;112175;-42
2023/09/16 08:47:19;;;;;;;11.10;6.40;;;;;;;18.64;66.20;99149.78;435065;1254;107542;-42
2023/09/16 08:57:26;;;;;;;8.70;6.40;;;;;;;18.63;65.62;99144.59;435216;1254;97984;-42
2023/09/16 09:07:35;;;;;;;9.60;6.70;;;;;;;18.98;65.52;99139.46;435283;1257;107930;-42
2023/09/16 09:17:45;;;;;;;8.60;6.80;;;;;;;19.07;65.18;99132.24;435434;1251;98735;-41
2023/09/16 09:27:53;;;;;;;13.10;6.70;;;;;;;19.30;65.02;99121.60;435334;1253;111229;-45
2023/09/16 09:58:10;;;;;;;7.90;6.90;;;;;;;19.66;63.81;99109.77;435359;1256;107558;-43
2023/09/16 10:08:15;;;;;;;8.40;5.90;;;;;;;19.95;63.53;99111.25;435379;1251;97985;-42
2023/09/16 10:28:32;;;;;;;11.10;6.80;;;;;;;20.36;62.28;99103.33;435540;1251;108754;-42
2023/09/16 10:38:40;;;;;;;12.40;7.60;;;;;;;20.35;61.50;99089.67;435464;1257;99266;-41
2023/09/16 10:48:48;;;;;;;14.80;8.90;;;;;;;20.20;61.18;99081.42;435328;1256;108262;-41
2023/09/16 10:58:54;;;;;;;10.50;8.30;;;;;;;20.17;61.58;99069.04;435354;1253;98004;-41
2023/09/16 11:09:02;;;;;;;12.50;10.10;;;;;;;20.31;61.23;99062.64;435028;1256;111123;-42
2023/09/16 11:19:13;;;;;;;11.40;9.60;;;;;;;20.48;61.28;99054.77;435192;1255;107722;-41
2023/09/16 11:49:32;;;;;;;9.10;7.50;;;;;;;21.01;60.43;99045.80;435189;1255;99252;-42
2023/09/16 11:59:40;;;;;;;8.40;7.20;;;;;;;21.15;60.10;99045.04;435338;1253;110717;-43
2023/09/16 12:09:46;;;;;;;9.90;7.00;;;;;;;21.23;59.95;99036.60;435321;1256;107757;-43
2023/09/16 12:19:54;;;;;;;6.80;6.00;;;;;;;21.31;59.63;99022.70;435256;1251;99259;-43
2023/09/16 12:30:02;;;;;;;8.90;6.50;;;;;;;21.37;59.12;99016.53;434802;1251;445497;-43
2023/09/16 12:40:11;;;;;;;6.30;5.80;;;;;;;21.54;59.15;99008.21;435312;1251;99221;-42
2023/09/16 12:50:17;;;;;;;8.80;5.50;;;;;;;21.63;58.92;99001.29;435312;1251;111640;-43
2023/09/16 13:20:42;;;;;;;6.40;5.20;;;;;;;21.75;58.48;98985.64;435239;1256;108794;-42
2023/09/16 13:40:55;;;;;;;5.20;4.10;;;;;;;21.98;58.56;98971.05;435362;1256;112145;-41
2023/09/16 14:01:09;;;;;;;5.10;4.60;;;;;;;22.03;57.95;98961.50;435208;1252;98824;-42
2023/09/16 14:21:22;;;;;;;4.70;4.30;;;;;;;22.03;58.01;98957.46;435173;1251;99212;-41
2023/09/16 14:31:27;;;;;;;4.50;4.00;;;;;;;22.02;57.45;98955.12;435270;1251;111935;-43
2023/09/16 14:41:35;;;;;;;5.60;4.30;;;;;;;22.01;57.47;98949.69;435177;1255;109609;-43
2023/09/16 14:51:46;;;;;;;7.10;6.20;;;;;;;22.05;57.69;98944.48;435192;1256;99182;-43
2023/09/16 15:01:54;;;;;;;7.70;5.00;;;;;;;22.01;57.88;98941.23;435203;1252;108135;-41
2023/09/16 15:12:00;;;;;;;5.30;4.50;;;;;;;21.99;57.63;98936.56;435146;1256;99311;-43
2023/09/16 15:22:07;;;;;;;7.90;4.70;;;;;;;21.96;57.51;98941.02;435220;1256;112132;-42
2023/09/16 15:32:13;;;;;;;7.60;5.30;;;;;;;21.92;57.44;98935.02;435285;1253;108064;-42
2023/09/16 15:42:23;;;;;;;6.70;5.50;;;;;;;21.86;57.72;98935.04;435162;1253;99215;-43
2023/09/16 15:52:30;;;;;;;5.80;5.30;;;;;;;21.73;57.86;98926.65;435222;1253;109040;-41
2023/09/16 16:12:45;;;;;;;8.10;6.30;;;;;;;21.38;58.39;98915.70;435337;1256;111777;-42
2023/09/16 16:43:02;;;;;;;9.40;7.70;;;;;;;20.76;59.44;98893.45;435201;1256;108120;-44
2023/09/16 17:13:20;;;;;;;9.20;6.60;;;;;;;20.03;61.36;98881.75;435205;1256;108064;-42
2023/09/16 17:23:26;;;;;;;10.20;8.40;;;;;;;19.84;62.12;98880.17;435349;1256;99231;-42
2023/09/16 17:43:40;;;;;;;12.30;9.40;;;;;;;19.44;63.50;98893.02;435197;1255;99228;-44
2023/09/16 17:53:47;;;;;;;12.10;8.50;;;;;;;19.27;64.15;98893.95;435368;1252;112150;-43
2023/09/16 18:03:53;;;;;;;18.00;9.10;;;;;;;19.29;65.14;98896.66;435101;1256;108059;-42
2023/09/16 18:14:02;;;;;;;14.00;9.80;;;;;;;19.25;65.99;98897.17;435309;1253;99323;-42
2023/09/16 18:24:07;;;;;;;16.80;10.70;;;;;;;19.13;66.53;98905.42;435229;1256;107900;-42
2023/09/16 18:44:23;;;;;;;11.60;8.70;;;;;;;18.97;67.79;98912.23;435273;1256;111620;-41
2023/09/16 18:54:32;;;;;;;11.80;9.50;;;;;;;18.89;68.52;98919.70;435169;1256;107163;-42
2023/09/16 19:04:37;;;;;;;16.10;12.10;;;;;;;18.75;69.16;98916.89;435200;1256;99221;-42
2023/09/16 19:14:44;;;;;;;17.20;9.10;;;;;;;18.64;69.49;98914.09;435224;1256;108059;-42
2023/09/16 19:24:53;;;;;;;11.70;7.70;;;;;;;18.58;69.59;98907.25;435235;1256;99363;-41
2023/09/16 19:35:00;;;;;;;13.90;9.10;;;;;;;18.51;70.01;98905.25;435326;1253;109836;-41
2023/09/16 19:55:11;;;;;;;11.80;10.00;;;;;;;18.29;70.90;98903.29;435218;1252;98810;-42
2023/09/16 20:05:21;;;;;;;10.80;8.20;;;;;;;18.19;71.00;98898.33;435097;1256;107751;-42
2023/09/16 20:15:29;;;;;;;10.80;8.20;;;;;;;18.14;71.04;98899.64;435203;1256;98364;-40
2023/09/16 20:25:38;;;;;;;12.20;8.80;;;;;;;18.05;71.33;98897.00;435159;1256;110042;-42
2023/09/16 20:35:43;;;;;;;13.30;10.30;;;;;;;17.97;71.82;98901.08;435184;1256;107067;-44
2023/09/16 20:45:50;;;;;;;10.50;8.20;;;;;;;17.83;72.09;98892.71;435180;1256;99250;-42
2023/09/16 21:06:04;;;;;;;10.80;7.80;;;;;;;17.66;72.58;98885.05;435205;1256;99200;-42
2023/09/16 21:16:11;;;;;;;10.10;7.80;;;;;;;17.62;72.95;98886.13;435237;1253;113800;-42
2023/09/16 21:26:17;;;;;;;12.10;8.20;;;;;;;17.56;73.00;98875.38;435289;1253;107835;-41
2023/09/16 21:36:23;;;;;;;13.80;8.40;;;;;;;17.42;73.40;98869.66;435139;1256;99228;-46
2023/09/16 21:46:28;;;;;;;10.40;7.90;;;;;;;17.31;73.39;98865.35;435117;1256;108057;-41
2023/09/16 21:56:34;;;;;;;10.00;7.80;;;;;;;17.24;73.80;98858.38;435174;1256;98049;-42
2023/09/16 22:06:41;;;;;;;12.30;7.70;;;;;;;17.22;73.96;98855.72;435104;1256;111150;-43
2023/09/16 22:16:47;;;;;;;15.20;9.40;;;;;;;17.27;74.05;98856.37;435314;1256;108200;-42
2023/09/16 22:26:57;;;;;;;14.60;11.10;;;;;;;17.01;73.98;98852.83;435143;1254;99260;-42
2023/09/16 22:37:04;;;;;;;10.30;9.00;;;;;;;16.63;74.00;98849.73;435229;1256;107706;-42
2023/09/16 22:47:12;;;;;;;17.50;11.40;;;;;;;16.58;74.56;98853.27;435136;1256;99236;-43
2023/09/16 22:57:19;;;;;;;13.90;11.00;;;;;;;16.46;74.73;98850.80;435173;1254;111248;-41
2023/09/16 23:07:27;;;;;;;10.40;8.30;;;;;;;16.33;75.43;98846.71;434953;1256;107605;-42
2023/09/16 23:17:34;;;;;;;14.20;9.50;;;;;;;16.25;75.95;98848.75;435174;1253;99248;-41
2023/09/16 23:27:41;;;;;;;14.00;10.60;;;;;;;16.19;76.08;98848.63;435226;1256;108270;-42
2023/09/16 23:37:47;;;;;;;14.80;11.60;;;;;;;15.90;77.05;98846.09;435169;1256;98023;-43
2023/09/16 23:47:54;;;;;;;15.80;10.10;;;;;;;15.76;77.98;98843.71;435160;1256;111325;-42
2023/09/16 23:57:59;;;;;;;14.90;10.40;;;;;;;15.70;78.23;98836.44;435080;1256;108292;-42
